GCHAR EGHP-EGLK
Flight info
| Callsign | GCHAR |
|---|---|
| Flight time | 0h 14m |
| Altitude | 1500 |
| Route | EGHP HOOK VRP EGLK |
| Aircraft | C172/L-S/N |
Departure
| Time | 2026-05-07 14:54 |
|---|---|
| Airport | Popham Airfield (EGHP) |
Arrival
| Time | 2026-05-07 15:08 |
|---|---|
| Airport | Blackbushe Airport (EGLK) |
| Time | Latitude | Longitude | Altitude | Speed | Heading |
|---|---|---|---|---|---|
| 2026-05-07 14:44 | 51.19377 | -1.23631 | 554 ft | 0 kts | 159° |
| 2026-05-07 14:46 | 51.19373 | -1.23629 | 554 ft | 4 kts | 182° |
| 2026-05-07 14:46 | 51.19355 | -1.23696 | 554 ft | 13 kts | 252° |
| 2026-05-07 14:47 | 51.19334 | -1.23839 | 554 ft | 11 kts | 257° |
| 2026-05-07 14:47 | 51.19322 | -1.23927 | 554 ft | 5 kts | 257° |
| 2026-05-07 14:47 | 51.19319 | -1.23945 | 554 ft | 0 kts | 257° |
| 2026-05-07 14:48 | 51.19319 | -1.23946 | 554 ft | 0 kts | 257° |
| 2026-05-07 14:48 | 51.19308 | -1.24019 | 554 ft | 18 kts | 257° |
| 2026-05-07 14:48 | 51.19291 | -1.24144 | 554 ft | 9 kts | 257° |
| 2026-05-07 14:48 | 51.19275 | -1.24235 | 554 ft | 3 kts | 218° |
| 2026-05-07 14:49 | 51.19247 | -1.24231 | 554 ft | 0 kts | 142° |
| 2026-05-07 14:50 | 51.19251 | -1.24199 | 554 ft | 10 kts | 73° |
| 2026-05-07 14:51 | 51.19285 | -1.24018 | 554 ft | 22 kts | 73° |
| 2026-05-07 14:51 | 51.19330 | -1.23762 | 554 ft | 24 kts | 74° |
| 2026-05-07 14:51 | 51.19374 | -1.23528 | 554 ft | 18 kts | 74° |
| 2026-05-07 14:51 | 51.19392 | -1.23402 | 554 ft | 9 kts | 101° |
| 2026-05-07 14:52 | 51.19366 | -1.23395 | 554 ft | 2 kts | 253° |
| 2026-05-07 14:52 | 51.19366 | -1.23397 | 554 ft | 0 kts | 257° |
| 2026-05-07 14:52 | 51.19315 | -1.23700 | 554 ft | 51 kts | 255° |
| 2026-05-07 14:53 | 51.19212 | -1.24369 | 661 ft | 65 kts | 256° |
| 2026-05-07 14:53 | 51.19166 | -1.25169 | 737 ft | 82 kts | 277° |
| 2026-05-07 14:53 | 51.19427 | -1.26045 | 836 ft | 93 kts | 303° |
| 2026-05-07 14:53 | 51.19960 | -1.26634 | 1000 ft | 98 kts | 347° |
| 2026-05-07 14:54 | 51.20618 | -1.26408 | 1149 ft | 100 kts | 33° |
| 2026-05-07 14:54 | 51.21041 | -1.25552 | 1298 ft | 99 kts | 69° |
| 2026-05-07 14:54 | 51.21233 | -1.24501 | 1447 ft | 100 kts | 78° |
| 2026-05-07 14:54 | 51.21380 | -1.23390 | 1512 ft | 106 kts | 78° |
| 2026-05-07 14:55 | 51.21523 | -1.22189 | 1512 ft | 114 kts | 81° |
| 2026-05-07 14:55 | 51.21641 | -1.20915 | 1504 ft | 118 kts | 82° |
| 2026-05-07 14:55 | 51.21750 | -1.19602 | 1500 ft | 120 kts | 83° |
| 2026-05-07 14:55 | 51.21869 | -1.18283 | 1498 ft | 121 kts | 82° |
| 2026-05-07 14:56 | 51.21992 | -1.16947 | 1498 ft | 121 kts | 81° |
| 2026-05-07 14:56 | 51.22173 | -1.15642 | 1497 ft | 120 kts | 74° |
| 2026-05-07 14:56 | 51.22458 | -1.14406 | 1496 ft | 119 kts | 69° |
| 2026-05-07 14:56 | 51.22793 | -1.13207 | 1496 ft | 118 kts | 66° |
| 2026-05-07 14:57 | 51.23121 | -1.12013 | 1496 ft | 118 kts | 68° |
| 2026-05-07 14:57 | 51.23457 | -1.10811 | 1497 ft | 118 kts | 68° |
| 2026-05-07 14:57 | 51.23785 | -1.09604 | 1497 ft | 119 kts | 70° |
| 2026-05-07 14:57 | 51.24072 | -1.08371 | 1497 ft | 119 kts | 73° |
| 2026-05-07 14:58 | 51.24333 | -1.07108 | 1497 ft | 120 kts | 72° |
| 2026-05-07 14:58 | 51.24636 | -1.05872 | 1497 ft | 120 kts | 68° |
| 2026-05-07 14:58 | 51.24988 | -1.04657 | 1497 ft | 120 kts | 65° |
| 2026-05-07 14:58 | 51.25373 | -1.03476 | 1497 ft | 120 kts | 62° |
| 2026-05-07 14:59 | 51.25815 | -1.02351 | 1497 ft | 120 kts | 57° |
| 2026-05-07 14:59 | 51.26290 | -1.01275 | 1497 ft | 119 kts | 56° |
| 2026-05-07 14:59 | 51.26762 | -1.00182 | 1497 ft | 119 kts | 57° |
| 2026-05-07 14:59 | 51.27230 | -0.99102 | 1497 ft | 118 kts | 56° |
| 2026-05-07 15:00 | 51.27564 | -0.98361 | 1497 ft | 117 kts | 55° |
| 2026-05-07 15:00 | 51.28004 | -0.97273 | 1497 ft | 117 kts | 62° |
| 2026-05-07 15:00 | 51.28239 | -0.96501 | 1497 ft | 116 kts | 67° |
| 2026-05-07 15:00 | 51.28554 | -0.95323 | 1491 ft | 113 kts | 65° |
| 2026-05-07 15:01 | 51.28920 | -0.94275 | 1352 ft | 104 kts | 58° |
| 2026-05-07 15:01 | 51.29313 | -0.93344 | 1221 ft | 99 kts | 56° |
| 2026-05-07 15:01 | 51.29719 | -0.92509 | 1177 ft | 92 kts | 54° |
| 2026-05-07 15:01 | 51.30107 | -0.91686 | 1186 ft | 93 kts | 55° |
| 2026-05-07 15:02 | 51.30511 | -0.90832 | 1095 ft | 99 kts | 54° |
| 2026-05-07 15:02 | 51.30941 | -0.89978 | 1005 ft | 97 kts | 50° |
| 2026-05-07 15:02 | 51.31396 | -0.89230 | 980 ft | 91 kts | 45° |
| 2026-05-07 15:02 | 51.31810 | -0.88505 | 885 ft | 87 kts | 61° |
| 2026-05-07 15:03 | 51.31956 | -0.87652 | 800 ft | 74 kts | 82° |
| 2026-05-07 15:03 | 51.32048 | -0.86891 | 751 ft | 66 kts | 79° |
| 2026-05-07 15:03 | 51.32165 | -0.86135 | 801 ft | 77 kts | 75° |
| 2026-05-07 15:03 | 51.32346 | -0.85248 | 853 ft | 90 kts | 73° |
| 2026-05-07 15:04 | 51.32561 | -0.84249 | 829 ft | 99 kts | 71° |
| 2026-05-07 15:04 | 51.32792 | -0.83198 | 804 ft | 102 kts | 72° |
| 2026-05-07 15:04 | 51.32942 | -0.82120 | 782 ft | 96 kts | 95° |
| 2026-05-07 15:04 | 51.32584 | -0.81357 | 774 ft | 85 kts | 159° |
| 2026-05-07 15:05 | 51.32034 | -0.81149 | 810 ft | 80 kts | 170° |
| 2026-05-07 15:05 | 51.31487 | -0.80976 | 803 ft | 81 kts | 170° |
| 2026-05-07 15:05 | 51.30957 | -0.81215 | 792 ft | 82 kts | 220° |
| 2026-05-07 15:05 | 51.30692 | -0.81999 | 804 ft | 81 kts | 248° |
| 2026-05-07 15:06 | 51.30513 | -0.82860 | 803 ft | 82 kts | 250° |
| 2026-05-07 15:06 | 51.30336 | -0.83733 | 801 ft | 84 kts | 250° |
| 2026-05-07 15:06 | 51.30122 | -0.84598 | 799 ft | 84 kts | 245° |
| 2026-05-07 15:06 | 51.29899 | -0.85456 | 794 ft | 84 kts | 251° |
| 2026-05-07 15:07 | 51.29993 | -0.86355 | 786 ft | 84 kts | 298° |
| 2026-05-07 15:07 | 51.30476 | -0.86915 | 830 ft | 94 kts | 339° |
| 2026-05-07 15:07 | 51.31084 | -0.87271 | 795 ft | 90 kts | 341° |
| 2026-05-07 15:07 | 51.31677 | -0.87382 | 810 ft | 85 kts | 18° |
| 2026-05-07 15:08 | 51.31999 | -0.86699 | 648 ft | 78 kts | 73° |
| 2026-05-07 15:08 | 51.32159 | -0.85900 | 423 ft | 72 kts | 72° |
| 2026-05-07 15:08 | 51.32313 | -0.85177 | 329 ft | 65 kts | 73° |
| 2026-05-07 15:08 | 51.32414 | -0.84684 | 329 ft | 27 kts | 89° |
| 2026-05-07 15:09 | 51.32443 | -0.84515 | 329 ft | 11 kts | 70° |
| 2026-05-07 15:09 | 51.32435 | -0.84428 | 329 ft | 4 kts | 148° |
| 2026-05-07 15:09 | 51.32430 | -0.84424 | 329 ft | 0 kts | 159° |
| 2026-05-07 15:10 | 51.32417 | -0.84418 | 329 ft | 3 kts | 169° |
| 2026-05-07 15:10 | 51.32376 | -0.84405 | 329 ft | 10 kts | 169° |
| 2026-05-07 15:10 | 51.32319 | -0.84386 | 329 ft | 5 kts | 165° |
| 2026-05-07 15:10 | 51.32294 | -0.84348 | 329 ft | 6 kts | 88° |
| 2026-05-07 15:11 | 51.32309 | -0.84276 | 329 ft | 9 kts | 60° |
| 2026-05-07 15:11 | 51.32343 | -0.84260 | 329 ft | 3 kts | 324° |
| 2026-05-07 15:11 | 51.32349 | -0.84289 | 329 ft | 0 kts | 252° |